San Antonio International Airport

Airport
ICAO code: 
KSAT
Summary
ICAO Region: 
NAM
Territory: 
Location: 
San Antonio, Texas,
Coordinates: 
Aerial View: 
29° 31' 29.809" N, 98° 28' 23.704" W
Airport LOS: 
Parallel Runway Operation
Metar
Observation
KSAT 040651Z 17007KT 10SM BKN006 19/18 A3004 RMK AO2 SLP155 T01940183
Station
San Antonio, San Antonio International Airport
Date/Time
2021-12-04 06:51:00
Wind direction
170°
Wind speed
07 kts
Lowest cloud amount
broken clouds
Temperature
19.4°C
Dew point
18.3°C
Humidity
93%
Weather condition
n/a

Description

San Antonio International Airport is a public use commercial airport in San Antonio, Texas.

Climatology

Transition between humid “subtropical” climate (Köppen climate classification Cfa) and hot semi-arid climate (Köppen climate classification BSh) - characterized by hot, humid summers and cool winters. Significant amounts of precipitation occur in all seasons in most areas. Winter rainfall (and sometimes snowfall) is associated with large storms that the westerlies steer from west to east. Most summer rainfall occurs during thunderstorms and occasional tropical storms (hurricanes).

Runways

Designator Length Width Surface Rops
12L/30R 1682 30 ASP Yes/Yes
3/21 2288 46 CON Yes/Yes
12R/30L 2591 46 CON Yes/Yes
Airport map: 
Aerial View: 

SKYbrary Partners:

Safety knowledge contributed by: